Time;durP1;ratioP1;P1;durP2;ratioP2;P2;SDS_P1;SDS_P2;PMS_P1;PMS_P2;Temp;Humidity;BMP_temperature;BMP_pressure;BME280_temperature;BME280_humidity;BME280_pressure;Samples;Min_cycle;Max_cycle;Signal;HPM_P1;HPM_P2
2022/11/02 00:00:43;;;;;;;;;;;17.50;46.50;;;;;;5054779;28;19921;-87
2022/11/02 00:03:09;;;;;;;;;;;17.50;46.50;;;;;;5060176;28;19909;-89
2022/11/02 00:05:35;;;;;;;;;;;17.50;46.40;;;;;;5072381;28;20514;-90
2022/11/02 00:08:03;;;;;;;;;;;17.50;46.30;;;;;;5073462;28;19908;-88
2022/11/02 00:10:31;;;;;;;;;;;17.50;46.50;;;;;;5072245;28;20432;-86
2022/11/02 00:12:57;;;;;;;;;;;17.50;46.40;;;;;;5069478;28;19919;-89
2022/11/02 00:15:24;;;;;;;;;;;17.50;46.40;;;;;;5062428;28;20375;-88
2022/11/02 00:17:52;;;;;;;;;;;17.50;46.40;;;;;;5056406;28;19908;-90
2022/11/02 00:20:21;;;;;;;;;;;17.40;46.30;;;;;;5073257;28;20819;-89
2022/11/02 00:22:49;;;;;;;;;;;17.40;46.40;;;;;;5072261;28;19908;-88
2022/11/02 00:25:16;;;;;;;;;;;17.30;46.60;;;;;;5071636;28;19939;-90
2022/11/02 00:27:42;;;;;;;;;;;17.30;46.70;;;;;;5071563;28;19919;-87
2022/11/02 00:30:08;;;;;;;;;;;17.30;47.00;;;;;;5065379;28;19924;-89
2022/11/02 00:32:33;;;;;;;;;;;17.30;46.90;;;;;;5061293;28;20367;-87
2022/11/02 00:34:59;;;;;;;;;;;17.30;46.80;;;;;;5058535;28;19943;-90
2022/11/02 00:37:25;;;;;;;;;;;17.30;46.90;;;;;;5057892;28;19924;-88
2022/11/02 00:39:51;;;;;;;;;;;17.30;46.90;;;;;;5059556;28;19917;-86
2022/11/02 00:42:16;;;;;;;;;;;17.30;47.10;;;;;;5060974;28;19916;-88
2022/11/02 00:44:42;;;;;;;;;;;17.30;47.20;;;;;;5064128;28;19908;-90
2022/11/02 00:47:07;;;;;;;;;;;17.40;47.20;;;;;;5052551;28;19924;-88
2022/11/02 00:49:33;;;;;;;;;;;17.50;47.00;;;;;;5067101;28;19944;-86
2022/11/02 00:51:59;;;;;;;;;;;17.60;46.90;;;;;;5072759;28;19924;-85
2022/11/02 00:54:24;;;;;;;;;;;17.60;46.80;;;;;;5071954;28;20240;-88
2022/11/02 00:56:50;;;;;;;;;;;17.70;46.70;;;;;;5073045;28;19917;-86
2022/11/02 00:59:16;;;;;;;;;;;17.70;46.70;;;;;;5072695;28;20267;-88
2022/11/02 01:01:46;;;;;;;;;;;17.70;46.70;;;;;;5057563;28;19917;-86
2022/11/02 01:04:17;;;;;;;;;;;17.80;46.70;;;;;;5051561;28;19909;-87
2022/11/02 01:06:43;;;;;;;;;;;17.80;46.70;;;;;;5051065;28;19944;-87
2022/11/02 01:09:09;;;;;;;;;;;17.80;46.70;;;;;;5054769;28;19916;-90
2022/11/02 01:11:35;;;;;;;;;;;17.80;46.60;;;;;;5057863;28;20303;-87
2022/11/02 01:14:03;;;;;;;;;;;17.80;46.50;;;;;;5062789;28;19913;-88
2022/11/02 01:16:29;;;;;;;;;;;17.90;46.40;;;;;;5065823;28;19928;-86
2022/11/02 01:18:55;;;;;;;;;;;17.90;46.60;;;;;;5059884;28;19912;-87
2022/11/02 01:21:21;;;;;;;;;;;17.90;46.80;;;;;;5059568;28;19924;-87
2022/11/02 01:23:47;;;;;;;;;;;18.00;46.90;;;;;;5063433;28;19993;-86
2022/11/02 01:26:13;;;;;;;;;;;17.90;47.50;;;;;;5071158;28;19917;-90
2022/11/02 01:28:41;;;;;;;;;;;17.80;48.70;;;;;;5058094;28;19912;-88
2022/11/02 01:31:07;;;;;;;;;;;17.70;49.40;;;;;;5063165;28;20011;-91
2022/11/02 01:33:33;;;;;;;;;;;17.50;50.20;;;;;;5066650;28;19913;-90
2022/11/02 01:36:01;;;;;;;;;;;17.40;50.60;;;;;;5056417;28;19932;-88
2022/11/02 01:38:27;;;;;;;;;;;17.30;51.00;;;;;;5055269;28;19925;-91
2022/11/02 01:40:52;;;;;;;;;;;17.30;51.30;;;;;;5052409;28;19917;-87
2022/11/02 01:43:32;;;;;;;;;;;17.30;51.30;;;;;;5056602;28;20398;-89
2022/11/02 01:45:57;;;;;;;;;;;17.30;51.30;;;;;;5058034;28;20317;-87
2022/11/02 01:48:30;;;;;;;;;;;17.30;51.90;;;;;;5058089;28;19925;-89
2022/11/02 01:50:56;;;;;;;;;;;17.20;53.40;;;;;;5055575;28;19931;-87
2022/11/02 01:53:24;;;;;;;;;;;17.10;56.20;;;;;;5058241;28;19943;-88
2022/11/02 01:55:50;;;;;;;;;;;17.00;56.90;;;;;;5054127;28;19921;-87
2022/11/02 01:58:15;;;;;;;;;;;16.80;58.20;;;;;;5057289;28;19912;-87
2022/11/02 02:00:41;;;;;;;;;;;16.80;58.70;;;;;;5058312;28;19917;-88
2022/11/02 02:03:12;;;;;;;;;;;16.70;59.30;;;;;;5062804;28;20478;-87
2022/11/02 02:05:40;;;;;;;;;;;16.60;59.90;;;;;;5054966;28;19916;-88
2022/11/02 02:08:07;;;;;;;;;;;16.70;59.70;;;;;;5058359;28;19916;-88
2022/11/02 02:10:33;;;;;;;;;;;16.70;60.30;;;;;;5060199;28;19935;-87
2022/11/02 02:12:59;;;;;;;;;;;16.60;60.60;;;;;;5058132;28;19937;-89
2022/11/02 02:15:30;;;;;;;;;;;16.60;60.70;;;;;;5063758;28;19924;-87
2022/11/02 02:17:55;;;;;;;;;;;16.70;60.80;;;;;;5055750;28;20348;-87
2022/11/02 02:20:35;;;;;;;;;;;16.80;60.70;;;;;;5058966;28;19960;-89
2022/11/02 02:23:10;;;;;;;;;;;16.90;60.40;;;;;;5056828;28;19919;-88
2022/11/02 02:25:45;;;;;;;;;;;17.00;60.50;;;;;;5056451;28;20170;-88
2022/11/02 02:28:24;;;;;;;;;;;17.00;60.20;;;;;;5055036;28;20008;-88
2022/11/02 02:30:54;;;;;;;;;;;17.00;60.30;;;;;;5058194;28;19929;-88
2022/11/02 02:33:25;;;;;;;;;;;16.90;60.20;;;;;;5072494;28;19913;-88
2022/11/02 02:36:03;;;;;;;;;;;17.00;60.00;;;;;;5061050;28;19916;-88
2022/11/02 02:38:32;;;;;;;;;;;16.80;60.10;;;;;;5073774;28;19908;-89
2022/11/02 02:41:11;;;;;;;;;;;16.90;60.30;;;;;;5060429;28;19927;-89
2022/11/02 02:43:39;;;;;;;;;;;16.80;60.50;;;;;;5050465;28;19966;-89
2022/11/02 02:46:08;;;;;;;;;;;16.90;60.40;;;;;;5060654;28;20012;-89
2022/11/02 02:48:34;;;;;;;;;;;16.80;60.50;;;;;;5051681;28;19963;-89
2022/11/02 02:51:05;;;;;;;;;;;16.80;60.50;;;;;;5051842;28;20047;-88
2022/11/02 02:53:43;;;;;;;;;;;16.80;60.40;;;;;;5057743;28;20363;-89
2022/11/02 02:56:10;;;;;;;;;;;16.80;60.20;;;;;;5050906;28;19920;-89
2022/11/02 02:58:38;;;;;;;;;;;16.80;60.60;;;;;;5064676;28;19952;-89
2022/11/02 03:01:05;;;;;;;;;;;16.80;60.80;;;;;;5058602;28;20208;-88
2022/11/02 03:03:32;;;;;;;;;;;16.80;60.60;;;;;;5057990;28;19924;-89
2022/11/02 03:06:05;;;;;;;;;;;16.70;60.70;;;;;;5059194;28;20283;-89
2022/11/02 03:08:31;;;;;;;;;;;16.60;60.80;;;;;;5059360;28;19928;-88
2022/11/02 03:11:08;;;;;;;;;;;16.70;60.70;;;;;;5056252;28;20418;-89
2022/11/02 03:13:52;;;;;;;;;;;16.50;61.10;;;;;;5053870;28;19929;-89
2022/11/02 03:16:29;;;;;;;;;;;16.50;61.10;;;;;;5050070;28;19917;-89
2022/11/02 03:19:07;;;;;;;;;;;16.50;61.10;;;;;;5061706;28;20424;-89
2022/11/02 03:21:38;;;;;;;;;;;16.50;60.90;;;;;;5053430;28;19921;-89
2022/11/02 03:24:08;;;;;;;;;;;16.50;61.10;;;;;;5062155;28;20007;-88
2022/11/02 03:26:38;;;;;;;;;;;16.60;60.90;;;;;;5056969;28;19917;-88
2022/11/02 03:29:13;;;;;;;;;;;16.50;60.70;;;;;;5053910;28;19920;-88
2022/11/02 03:31:41;;;;;;;;;;;16.50;61.00;;;;;;5061415;28;20345;-87
2022/11/02 03:34:06;;;;;;;;;;;16.50;60.80;;;;;;5056776;28;19920;-88
2022/11/02 03:36:35;;;;;;;;;;;16.60;60.70;;;;;;5067679;28;19923;-89
2022/11/02 03:39:05;;;;;;;;;;;16.50;60.80;;;;;;5059604;28;19912;-90
2022/11/02 03:41:33;;;;;;;;;;;16.50;60.90;;;;;;5064833;28;20256;-88
2022/11/02 03:44:02;;;;;;;;;;;16.50;61.00;;;;;;5053257;28;19916;-88
2022/11/02 03:46:30;;;;;;;;;;;16.50;60.70;;;;;;5058017;28;19921;-88
2022/11/02 03:48:56;;;;;;;;;;;16.50;60.50;;;;;;5056769;28;20271;-88
2022/11/02 03:51:22;;;;;;;;;;;16.50;60.60;;;;;;5060437;28;19940;-87
2022/11/02 03:54:07;;;;;;;;;;;16.60;60.40;;;;;;5056140;28;19924;-87
2022/11/02 03:56:41;;;;;;;;;;;16.60;60.30;;;;;;5064274;28;19917;-88
2022/11/02 03:59:07;;;;;;;;;;;16.50;60.40;;;;;;5055469;28;19917;-90
2022/11/02 04:01:38;;;;;;;;;;;16.50;60.40;;;;;;5063999;28;20007;-89
2022/11/02 04:04:03;;;;;;;;;;;16.60;60.20;;;;;;5059023;28;19955;-89
2022/11/02 04:06:29;;;;;;;;;;;16.60;60.20;;;;;;5056646;28;19982;-88
2022/11/02 04:08:55;;;;;;;;;;;16.60;59.90;;;;;;5064343;28;19919;-88
2022/11/02 04:19:26;;;;;;;;;;;16.40;60.10;;;;;;5064330;28;19974;-88
2022/11/02 04:19:35;;;;;;;;;;;16.40;60.40;;;;;;5069449;28;19962;-88
2022/11/02 04:27:31;;;;;;;;;;;16.40;60.40;;;;;;5058358;28;19939;-88
2022/11/02 04:29:56;;;;;;;;;;;16.40;60.50;;;;;;5060552;28;20620;-87
2022/11/02 04:35:07;;;;;;;;;;;16.40;60.30;;;;;;5073665;28;19985;-88
2022/11/02 04:40:26;;;;;;;;;;;16.50;60.60;;;;;;5053998;28;20243;-88
2022/11/02 04:42:52;;;;;;;;;;;16.50;61.00;;;;;;5056524;28;19912;-88
2022/11/02 04:45:18;;;;;;;;;;;16.60;60.90;;;;;;5065469;28;19919;-88
2022/11/02 04:47:44;;;;;;;;;;;16.70;60.70;;;;;;5059093;28;19913;-87
2022/11/02 04:50:10;;;;;;;;;;;16.90;60.40;;;;;;5055134;28;19966;-88
2022/11/02 04:52:36;;;;;;;;;;;17.00;60.50;;;;;;5059508;28;19936;-89
2022/11/02 04:55:01;;;;;;;;;;;17.10;60.20;;;;;;5054906;28;19924;-87
2022/11/02 04:57:27;;;;;;;;;;;17.10;60.00;;;;;;5058850;28;19921;-88
2022/11/02 04:59:53;;;;;;;;;;;17.10;59.90;;;;;;5064235;28;20077;-89
2022/11/02 05:02:19;;;;;;;;;;;17.00;59.80;;;;;;5057412;28;20055;-89
2022/11/02 05:04:45;;;;;;;;;;;16.90;59.60;;;;;;5058544;28;20405;-89
2022/11/02 05:07:10;;;;;;;;;;;16.80;59.50;;;;;;5060192;28;19913;-89
2022/11/02 05:09:36;;;;;;;;;;;16.80;59.90;;;;;;5072183;28;20003;-88
2022/11/02 05:12:03;;;;;;;;;;;16.80;59.80;;;;;;5067425;28;19932;-89
2022/11/02 05:14:29;;;;;;;;;;;16.80;59.60;;;;;;5056151;28;19951;-88
2022/11/02 05:16:56;;;;;;;;;;;16.80;59.60;;;;;;5056043;28;19939;-87
2022/11/02 05:19:21;;;;;;;;;;;16.70;59.60;;;;;;5063287;28;20274;-88
2022/11/02 05:21:47;;;;;;;;;;;16.70;59.60;;;;;;5052860;28;19917;-89
2022/11/02 05:24:13;;;;;;;;;;;16.60;59.90;;;;;;5061562;28;20355;-90
2022/11/02 05:26:39;;;;;;;;;;;16.70;59.70;;;;;;5076030;28;20015;-90
2022/11/02 05:29:05;;;;;;;;;;;16.70;59.70;;;;;;5059838;28;19924;-88
2022/11/02 05:31:31;;;;;;;;;;;16.70;59.40;;;;;;5063551;28;19934;-89
2022/11/02 05:33:56;;;;;;;;;;;16.70;59.50;;;;;;5073041;28;20011;-89
2022/11/02 05:36:22;;;;;;;;;;;16.70;59.30;;;;;;5074550;28;19943;-87
2022/11/02 05:38:51;;;;;;;;;;;16.80;59.40;;;;;;5060307;28;20395;-89
2022/11/02 05:41:16;;;;;;;;;;;16.80;59.20;;;;;;5066063;28;19951;-89
2022/11/02 05:43:42;;;;;;;;;;;16.80;59.10;;;;;;5072327;28;19912;-89
2022/11/02 05:46:08;;;;;;;;;;;16.90;59.10;;;;;;5068273;28;19925;-89
2022/11/02 05:48:33;;;;;;;;;;;17.10;58.70;;;;;;5074403;28;20321;-89
2022/11/02 05:51:00;;;;;;;;;;;17.20;58.70;;;;;;5074161;28;19928;-88
2022/11/02 05:53:30;;;;;;;;;;;17.10;58.40;;;;;;5079849;28;19919;-89
2022/11/02 05:55:56;;;;;;;;;;;17.20;58.10;;;;;;5067574;28;19923;-87
2022/11/02 05:58:22;;;;;;;;;;;17.20;58.10;;;;;;5069573;28;20339;-87
2022/11/02 06:00:48;;;;;;;;;;;17.30;58.40;;;;;;5059270;28;20363;-89
2022/11/02 06:03:13;;;;;;;;;;;17.30;57.80;;;;;;5059035;28;19913;-88
2022/11/02 06:05:39;;;;;;;;;;;17.40;57.90;;;;;;5057998;28;20314;-89
2022/11/02 06:08:04;;;;;;;;;;;17.50;57.60;;;;;;5061889;28;20183;-87
2022/11/02 06:10:30;;;;;;;;;;;17.50;57.30;;;;;;5055584;28;19985;-87
2022/11/02 06:12:59;;;;;;;;;;;17.50;57.50;;;;;;5058990;28;20445;-88
2022/11/02 06:15:25;;;;;;;;;;;17.60;57.40;;;;;;5052355;28;19929;-89
2022/11/02 06:17:53;;;;;;;;;;;17.60;56.50;;;;;;5059218;28;19918;-88
2022/11/02 06:20:19;;;;;;;;;;;17.50;56.00;;;;;;5060177;28;19924;-86
2022/11/02 06:22:45;;;;;;;;;;;17.50;56.40;;;;;;5051844;28;20367;-87
2022/11/02 06:25:10;;;;;;;;;;;17.50;56.40;;;;;;5051986;28;19927;-86
2022/11/02 06:27:36;;;;;;;;;;;17.40;56.30;;;;;;5054437;28;20185;-86
2022/11/02 06:30:02;;;;;;;;;;;17.30;56.30;;;;;;5053466;28;20437;-88
2022/11/02 06:32:28;;;;;;;;;;;17.20;56.30;;;;;;5068588;28;20424;-88
2022/11/02 06:34:53;;;;;;;;;;;17.30;56.30;;;;;;5054785;28;20014;-87
2022/11/02 06:37:19;;;;;;;;;;;17.30;56.00;;;;;;5057112;28;20356;-88
2022/11/02 06:39:44;;;;;;;;;;;17.40;56.00;;;;;;5058300;28;19913;-88
2022/11/02 06:42:10;;;;;;;;;;;17.40;55.50;;;;;;5057727;28;19917;-89
2022/11/02 06:44:36;;;;;;;;;;;17.40;55.20;;;;;;5051139;28;19986;-88
2022/11/02 06:47:01;;;;;;;;;;;17.40;55.20;;;;;;5053770;28;19971;-89
2022/11/02 06:49:27;;;;;;;;;;;17.50;54.80;;;;;;5058896;28;19916;-88
2022/11/02 06:51:53;;;;;;;;;;;17.50;54.80;;;;;;5058876;28;20017;-88
2022/11/02 06:54:19;;;;;;;;;;;17.60;54.80;;;;;;5060521;28;20370;-88
2022/11/02 06:56:44;;;;;;;;;;;17.70;54.60;;;;;;5055808;28;19967;-89
2022/11/02 06:59:10;;;;;;;;;;;17.80;54.30;;;;;;5053461;28;20432;-87
2022/11/02 07:01:35;;;;;;;;;;;17.80;54.30;;;;;;5059461;28;19916;-89
2022/11/02 07:04:01;;;;;;;;;;;17.90;54.10;;;;;;5066102;28;20019;-88
2022/11/02 07:06:27;;;;;;;;;;;18.00;53.90;;;;;;5064594;28;19905;-89
2022/11/02 07:08:53;;;;;;;;;;;18.00;53.50;;;;;;5051571;28;20409;-87
2022/11/02 07:11:18;;;;;;;;;;;18.10;53.30;;;;;;5061306;28;20421;-87
2022/11/02 07:13:44;;;;;;;;;;;18.20;53.30;;;;;;5069947;28;19916;-87
2022/11/02 07:16:10;;;;;;;;;;;18.30;53.30;;;;;;5070997;28;19917;-85
2022/11/02 07:18:35;;;;;;;;;;;18.40;52.70;;;;;;5069649;28;19908;-88
2022/11/02 07:21:01;;;;;;;;;;;18.50;52.30;;;;;;5070024;28;20386;-88
2022/11/02 07:23:27;;;;;;;;;;;18.50;51.30;;;;;;5061276;28;19909;-88
2022/11/02 07:25:52;;;;;;;;;;;18.60;50.80;;;;;;5049101;28;20044;-88
2022/11/02 07:28:19;;;;;;;;;;;18.70;51.00;;;;;;5051643;28;20429;-86
2022/11/02 07:30:44;;;;;;;;;;;18.70;50.70;;;;;;5057051;28;19996;-87
2022/11/02 07:33:10;;;;;;;;;;;18.80;50.50;;;;;;5059691;28;19967;-89
2022/11/02 07:35:36;;;;;;;;;;;18.80;49.70;;;;;;5072392;28;20309;-89
2022/11/02 07:38:02;;;;;;;;;;;18.80;50.00;;;;;;5073943;28;19996;-88
2022/11/02 07:40:35;;;;;;;;;;;18.70;49.70;;;;;;5069623;28;21127;-89
2022/11/02 07:43:01;;;;;;;;;;;18.70;49.60;;;;;;5059201;28;20298;-87
2022/11/02 07:45:28;;;;;;;;;;;18.80;49.30;;;;;;5065847;28;20363;-87
2022/11/02 07:47:53;;;;;;;;;;;19.00;49.30;;;;;;5056642;28;19967;-88
2022/11/02 07:50:20;;;;;;;;;;;19.10;49.50;;;;;;5049209;28;20002;-88
2022/11/02 07:52:47;;;;;;;;;;;19.20;49.20;;;;;;5054229;28;19917;-87
2022/11/02 07:55:13;;;;;;;;;;;19.20;49.20;;;;;;5069465;28;19961;-86
2022/11/02 07:57:39;;;;;;;;;;;19.40;49.10;;;;;;5069439;28;19924;-88
2022/11/02 08:00:05;;;;;;;;;;;19.50;49.20;;;;;;5059972;28;19912;-88
2022/11/02 08:02:30;;;;;;;;;;;19.60;48.20;;;;;;5049436;28;19921;-87
2022/11/02 08:04:56;;;;;;;;;;;19.70;47.90;;;;;;5050415;28;19912;-87
2022/11/02 08:07:21;;;;;;;;;;;19.70;47.60;;;;;;5050448;28;19920;-87
2022/11/02 08:09:47;;;;;;;;;;;19.90;48.60;;;;;;5051527;28;20377;-89
2022/11/02 08:12:13;;;;;;;;;;;20.20;48.60;;;;;;5049045;28;19912;-88
2022/11/02 08:14:38;;;;;;;;;;;20.60;48.90;;;;;;5048928;28;19917;-87
2022/11/02 08:17:04;;;;;;;;;;;21.10;47.60;;;;;;5050023;28;20561;-88
2022/11/02 08:19:30;;;;;;;;;;;21.60;45.90;;;;;;5050826;28;19921;-90
2022/11/02 08:21:55;;;;;;;;;;;21.90;44.70;;;;;;5048996;28;19920;-89
2022/11/02 08:24:22;;;;;;;;;;;22.10;43.10;;;;;;5050273;28;19921;-86
2022/11/02 08:26:47;;;;;;;;;;;22.10;42.80;;;;;;5048970;28;19924;-89
2022/11/02 08:29:13;;;;;;;;;;;22.00;41.80;;;;;;5051263;28;19913;-89
2022/11/02 08:31:38;;;;;;;;;;;21.80;41.90;;;;;;5052244;28;19924;-89
2022/11/02 08:34:04;;;;;;;;;;;21.70;41.50;;;;;;5060649;28;19966;-88
2022/11/02 08:36:29;;;;;;;;;;;21.60;41.10;;;;;;5056987;28;19921;-88
2022/11/02 08:38:55;;;;;;;;;;;21.50;41.40;;;;;;5050010;28;19916;-87
2022/11/02 08:41:21;;;;;;;;;;;21.40;41.90;;;;;;5049667;28;20430;-90
2022/11/02 08:43:46;;;;;;;;;;;21.50;41.90;;;;;;5048179;28;19917;-89
2022/11/02 08:46:12;;;;;;;;;;;21.50;42.50;;;;;;5065972;28;19916;-87
2022/11/02 08:48:38;;;;;;;;;;;21.70;41.30;;;;;;5069837;28;20016;-89
2022/11/02 08:51:04;;;;;;;;;;;21.70;40.90;;;;;;5067856;28;19925;-88
2022/11/02 08:53:30;;;;;;;;;;;21.70;40.80;;;;;;5068454;28;20381;-89
2022/11/02 08:55:56;;;;;;;;;;;21.70;40.70;;;;;;5067972;28;19952;-88
2022/11/02 08:58:22;;;;;;;;;;;21.70;40.50;;;;;;5069418;28;19917;-88
2022/11/02 09:00:47;;;;;;;;;;;21.80;41.40;;;;;;5053950;28;20015;-88
2022/11/02 09:03:14;;;;;;;;;;;22.20;40.90;;;;;;5049052;28;20047;-89
2022/11/02 09:05:43;;;;;;;;;;;22.60;40.00;;;;;;5049620;28;19917;-89
2022/11/02 09:08:15;;;;;;;;;;;22.70;39.40;;;;;;5048382;28;19920;-89
2022/11/02 09:10:41;;;;;;;;;;;22.80;39.20;;;;;;5048750;28;20015;-89
2022/11/02 09:13:09;;;;;;;;;;;23.00;38.00;;;;;;5047436;28;19999;-88
2022/11/02 09:15:35;;;;;;;;;;;23.20;38.80;;;;;;5054731;28;19978;-88
2022/11/02 09:18:01;;;;;;;;;;;23.50;38.20;;;;;;5053028;28;19917;-88
2022/11/02 09:20:26;;;;;;;;;;;23.70;36.90;;;;;;5051895;28;20015;-87
2022/11/02 09:22:52;;;;;;;;;;;23.90;37.10;;;;;;5068942;28;20003;-88
2022/11/02 09:25:18;;;;;;;;;;;24.20;36.40;;;;;;5062815;28;19931;-90
2022/11/02 09:27:44;;;;;;;;;;;24.40;36.20;;;;;;5049174;28;19912;-89
2022/11/02 09:30:10;;;;;;;;;;;24.80;36.50;;;;;;5047657;28;19936;-90
2022/11/02 09:32:36;;;;;;;;;;;25.00;35.70;;;;;;5048526;28;19948;-87
2022/11/02 09:35:03;;;;;;;;;;;25.10;34.70;;;;;;5064551;28;19963;-91
2022/11/02 09:37:28;;;;;;;;;;;25.00;34.30;;;;;;5055762;28;20379;-91
2022/11/02 09:39:54;;;;;;;;;;;24.80;34.30;;;;;;5067698;28;19951;-88
2022/11/02 09:42:27;;;;;;;;;;;24.80;34.40;;;;;;5069215;28;20407;-90
2022/11/02 09:44:56;;;;;;;;;;;24.90;33.90;;;;;;5061650;28;19921;-90
2022/11/02 09:47:23;;;;;;;;;;;25.10;33.60;;;;;;5046991;28;19920;-89
2022/11/02 09:49:49;;;;;;;;;;;25.20;32.90;;;;;;5048238;28;20046;-88
2022/11/02 09:52:22;;;;;;;;;;;25.20;33.30;;;;;;5048402;28;20152;-91
2022/11/02 09:54:49;;;;;;;;;;;25.30;33.00;;;;;;5046781;28;19928;-91
2022/11/02 09:57:28;;;;;;;;;;;25.50;33.90;;;;;;5050359;28;19920;-90
2022/11/02 09:59:54;;;;;;;;;;;25.80;33.90;;;;;;5048153;28;20465;-89
2022/11/02 10:02:38;;;;;;;;;;;26.00;33.80;;;;;;5048300;28;20220;-90
2022/11/02 10:05:17;;;;;;;;;;;26.20;32.60;;;;;;5047655;28;20287;-87
2022/11/02 10:07:48;;;;;;;;;;;26.50;32.00;;;;;;5048577;28;19919;-91
2022/11/02 10:10:34;;;;;;;;;;;26.70;31.20;;;;;;5047319;28;20028;-92
2022/11/02 10:13:15;;;;;;;;;;;27.00;31.30;;;;;;5035775;28;19914;-90
2022/11/02 10:15:46;;;;;;;;;;;27.20;31.10;;;;;;5047429;28;20015;-91
2022/11/02 10:18:14;;;;;;;;;;;27.30;30.20;;;;;;5049141;28;20347;-91
2022/11/02 10:20:46;;;;;;;;;;;27.30;30.20;;;;;;5046894;28;20423;-88
2022/11/02 10:23:15;;;;;;;;;;;27.40;30.30;;;;;;5047733;28;20352;-90
2022/11/02 10:25:41;;;;;;;;;;;27.30;30.40;;;;;;5046587;28;19928;-90
2022/11/02 10:28:10;;;;;;;;;;;27.20;30.30;;;;;;5064571;28;19917;-90
2022/11/02 10:30:36;;;;;;;;;;;27.00;30.20;;;;;;5051263;28;19929;-87
2022/11/02 10:33:09;;;;;;;;;;;26.60;30.30;;;;;;5051554;28;20019;-91
2022/11/02 10:35:46;;;;;;;;;;;26.20;30.60;;;;;;5061395;28;20328;-88
2022/11/02 10:38:27;;;;;;;;;;;25.70;30.60;;;;;;5049237;28;19913;-86
2022/11/02 10:41:05;;;;;;;;;;;25.30;31.10;;;;;;5048643;28;19943;-91
2022/11/02 10:43:36;;;;;;;;;;;24.90;31.70;;;;;;5048914;28;19913;-88
2022/11/02 10:46:24;;;;;;;;;;;24.60;32.10;;;;;;5064191;28;20025;-89
2022/11/02 10:49:05;;;;;;;;;;;24.30;32.50;;;;;;5068404;28;20131;-92
2022/11/02 10:51:31;;;;;;;;;;;24.00;32.90;;;;;;5066524;28;19935;-90
2022/11/02 10:53:56;;;;;;;;;;;23.80;33.10;;;;;;5066795;28;19912;-89
2022/11/02 10:56:23;;;;;;;;;;;23.80;33.40;;;;;;5067819;28;19951;-88
2022/11/02 10:58:51;;;;;;;;;;;23.90;33.60;;;;;;5066761;28;20003;-88
2022/11/02 11:01:17;;;;;;;;;;;24.10;33.50;;;;;;5067767;28;19995;-90
2022/11/02 11:03:52;;;;;;;;;;;24.30;33.50;;;;;;5068464;28;20004;-90
2022/11/02 11:06:18;;;;;;;;;;;24.70;33.30;;;;;;5072163;28;19940;-91
2022/11/02 11:08:47;;;;;;;;;;;24.80;32.90;;;;;;5058676;28;19916;-90
2022/11/02 11:11:18;;;;;;;;;;;24.70;32.40;;;;;;5071432;28;19921;-89
2022/11/02 11:13:55;;;;;;;;;;;24.70;32.00;;;;;;5070925;28;20007;-87
2022/11/02 11:16:43;;;;;;;;;;;24.80;32.00;;;;;;5071945;28;19912;-87
2022/11/02 11:19:27;;;;;;;;;;;25.00;32.30;;;;;;5075488;28;19974;-92
2022/11/02 11:21:53;;;;;;;;;;;25.10;32.00;;;;;;5068991;28;20035;-88
2022/11/02 11:24:29;;;;;;;;;;;25.10;31.30;;;;;;5071203;28;19920;-88
2022/11/02 11:27:02;;;;;;;;;;;25.30;31.50;;;;;;5065701;28;19994;-90
2022/11/02 11:29:32;;;;;;;;;;;25.30;31.30;;;;;;5071610;28;20367;-87
2022/11/02 11:31:59;;;;;;;;;;;25.10;30.90;;;;;;5069241;28;20382;-90
2022/11/02 11:34:26;;;;;;;;;;;24.90;30.80;;;;;;5072602;28;20354;-87
2022/11/02 11:36:52;;;;;;;;;;;24.70;31.40;;;;;;5067980;28;20385;-90
2022/11/02 11:39:20;;;;;;;;;;;24.60;31.40;;;;;;5073851;28;20291;-89
2022/11/02 11:41:46;;;;;;;;;;;24.30;31.50;;;;;;5071603;28;19920;-88
2022/11/02 11:44:15;;;;;;;;;;;24.20;31.70;;;;;;5071101;28;20012;-91
2022/11/02 11:46:43;;;;;;;;;;;24.20;31.90;;;;;;5054352;28;19928;-92
2022/11/02 11:49:29;;;;;;;;;;;24.40;31.90;;;;;;5066790;28;20012;-89
2022/11/02 11:51:56;;;;;;;;;;;24.40;31.60;;;;;;5071606;28;19929;-91
2022/11/02 11:54:28;;;;;;;;;;;24.60;31.70;;;;;;5073506;28;20697;-89
2022/11/02 11:56:55;;;;;;;;;;;24.90;31.50;;;;;;5074544;28;19917;-90
2022/11/02 11:59:27;;;;;;;;;;;25.20;31.50;;;;;;5072805;28;19897;-88
2022/11/02 12:01:55;;;;;;;;;;;25.60;31.60;;;;;;5074161;28;19975;-87
2022/11/02 12:04:27;;;;;;;;;;;25.90;31.00;;;;;;5072030;28;19913;-92
2022/11/02 12:06:53;;;;;;;;;;;26.10;30.50;;;;;;5071939;28;19927;-91
2022/11/02 12:09:28;;;;;;;;;;;26.30;30.30;;;;;;5070910;28;19913;-92
2022/11/02 12:12:01;;;;;;;;;;;26.50;30.30;;;;;;5071212;28;19929;-89
2022/11/02 12:14:46;;;;;;;;;;;26.60;29.60;;;;;;5073091;28;20394;-87
2022/11/02 12:17:27;;;;;;;;;;;26.40;28.50;;;;;;5071763;28;19927;-91
2022/11/02 12:20:12;;;;;;;;;;;26.00;28.70;;;;;;5074205;28;19912;-91
2022/11/02 12:22:44;;;;;;;;;;;25.60;29.20;;;;;;5073858;28;19947;-91
2022/11/02 12:25:25;;;;;;;;;;;25.30;29.10;;;;;;5072219;28;19917;-90
2022/11/02 12:28:05;;;;;;;;;;;24.80;29.50;;;;;;5071577;28;20386;-90
2022/11/02 12:30:37;;;;;;;;;;;24.50;29.80;;;;;;5073333;28;20010;-90
2022/11/02 12:33:11;;;;;;;;;;;24.20;29.90;;;;;;5072326;28;19924;-92
2022/11/02 12:35:43;;;;;;;;;;;23.90;30.10;;;;;;5067327;28;19919;-91
2022/11/02 12:38:12;;;;;;;;;;;23.70;30.20;;;;;;5052515;28;19925;-88
2022/11/02 12:40:37;;;;;;;;;;;23.50;30.20;;;;;;5050967;28;19913;-89
2022/11/02 12:43:18;;;;;;;;;;;23.30;30.50;;;;;;5050169;28;19927;-86
2022/11/02 12:46:03;;;;;;;;;;;23.20;30.50;;;;;;5050322;28;19913;-89
2022/11/02 12:48:47;;;;;;;;;;;23.10;30.70;;;;;;5053680;28;20190;-88
2022/11/02 12:51:33;;;;;;;;;;;22.80;31.00;;;;;;5049758;28;19921;-86
2022/11/02 12:54:02;;;;;;;;;;;22.70;31.10;;;;;;5048728;28;19916;-88
2022/11/02 12:56:37;;;;;;;;;;;22.50;31.50;;;;;;5051009;28;19923;-87
2022/11/02 12:59:03;;;;;;;;;;;22.40;31.70;;;;;;5050227;28;19975;-86
2022/11/02 13:01:36;;;;;;;;;;;22.30;31.90;;;;;;5050543;28;19967;-88
2022/11/02 13:04:12;;;;;;;;;;;22.20;32.20;;;;;;5050140;28;19924;-90
2022/11/02 13:06:40;;;;;;;;;;;22.10;32.00;;;;;;5051975;28;19924;-89
2022/11/02 13:09:07;;;;;;;;;;;21.90;32.20;;;;;;5053460;28;20051;-90
2022/11/02 13:11:39;;;;;;;;;;;21.80;32.20;;;;;;5054999;28;19919;-91
2022/11/02 13:14:08;;;;;;;;;;;21.80;32.20;;;;;;5049056;28;20386;-87
2022/11/02 13:16:38;;;;;;;;;;;21.70;32.40;;;;;;5048942;28;19917;-89
2022/11/02 13:19:05;;;;;;;;;;;21.70;32.50;;;;;;5050529;28;19990;-89
2022/11/02 13:21:33;;;;;;;;;;;21.60;32.50;;;;;;5050947;28;19924;-87
2022/11/02 13:23:59;;;;;;;;;;;21.50;32.70;;;;;;5048499;28;19924;-91
2022/11/02 13:26:27;;;;;;;;;;;21.40;32.90;;;;;;5048575;28;19925;-91
2022/11/02 13:29:04;;;;;;;;;;;21.40;33.10;;;;;;5067255;28;20306;-87
2022/11/02 13:31:38;;;;;;;;;;;21.30;33.10;;;;;;5049157;28;19929;-88
2022/11/02 13:34:07;;;;;;;;;;;21.20;33.20;;;;;;5060962;28;19912;-91
2022/11/02 13:36:36;;;;;;;;;;;21.10;33.10;;;;;;5055130;28;20523;-90
2022/11/02 13:39:13;;;;;;;;;;;21.10;33.30;;;;;;5050176;28;19912;-90
2022/11/02 13:42:00;;;;;;;;;;;21.00;33.30;;;;;;5048611;28;20347;-88
2022/11/02 13:44:41;;;;;;;;;;;21.00;33.50;;;;;;5052885;28;19999;-89
2022/11/02 13:47:15;;;;;;;;;;;20.90;33.60;;;;;;5068595;28;20397;-89
2022/11/02 13:49:43;;;;;;;;;;;20.80;33.80;;;;;;5069839;28;20003;-89
2022/11/02 13:52:10;;;;;;;;;;;20.80;33.80;;;;;;5073072;28;19932;-89
2022/11/02 13:54:44;;;;;;;;;;;20.70;34.00;;;;;;5070966;28;19935;-92
2022/11/02 13:57:31;;;;;;;;;;;20.70;33.90;;;;;;5069674;28;20386;-88
2022/11/02 13:59:57;;;;;;;;;;;20.70;33.70;;;;;;5070735;28;19913;-91
2022/11/02 14:02:23;;;;;;;;;;;20.50;33.70;;;;;;5068366;28;19920;-88
2022/11/02 14:04:49;;;;;;;;;;;20.50;33.70;;;;;;5068203;28;19927;-89
2022/11/02 14:07:27;;;;;;;;;;;20.50;33.80;;;;;;5067696;28;19974;-91
2022/11/02 14:10:11;;;;;;;;;;;20.40;33.90;;;;;;5071090;28;19935;-90
2022/11/02 14:12:41;;;;;;;;;;;20.40;34.00;;;;;;5069866;28;19965;-87
2022/11/02 14:15:13;;;;;;;;;;;20.30;34.10;;;;;;5067997;28;19999;-92
2022/11/02 14:17:55;;;;;;;;;;;20.30;34.20;;;;;;5068842;28;20442;-92
2022/11/02 14:20:36;;;;;;;;;;;20.30;34.30;;;;;;5067804;28;20247;-89
2022/11/02 14:23:07;;;;;;;;;;;20.30;34.40;;;;;;5069424;28;20371;-89
2022/11/02 14:25:46;;;;;;;;;;;20.20;34.50;;;;;;5069779;28;20291;-90
2022/11/02 14:28:24;;;;;;;;;;;20.20;34.60;;;;;;5071699;28;19970;-90
2022/11/02 14:30:53;;;;;;;;;;;20.20;34.60;;;;;;5070013;28;20298;-90
2022/11/02 14:33:37;;;;;;;;;;;20.10;34.80;;;;;;5070175;28;19956;-87
2022/11/02 14:36:23;;;;;;;;;;;20.10;34.80;;;;;;5058114;28;19919;-88
2022/11/02 14:38:55;;;;;;;;;;;20.00;35.00;;;;;;5064528;28;19935;-87
2022/11/02 14:41:20;;;;;;;;;;;20.00;35.00;;;;;;5071721;28;19935;-89
2022/11/02 14:43:53;;;;;;;;;;;20.00;35.20;;;;;;5069710;28;20539;-88